createdAt,value
2018-06-23T00:00:58.971Z,9.83
2018-06-23T00:01:59.156Z,9.86
2018-06-23T00:02:59.354Z,9.99
2018-06-23T00:03:59.548Z,9.89
2018-06-23T00:04:59.749Z,9.90
2018-06-23T00:05:59.941Z,9.96
2018-06-23T00:07:00.129Z,9.87
2018-06-23T00:08:00.375Z,9.97
2018-06-23T00:09:00.568Z,9.90
2018-06-23T00:10:00.759Z,9.81
2018-06-23T00:11:00.939Z,9.83
2018-06-23T00:13:33.246Z,9.74
2018-06-23T00:14:33.420Z,9.74
2018-06-23T00:15:33.640Z,9.68
2018-06-23T00:16:33.827Z,9.60
2018-06-23T00:17:34.033Z,9.64
2018-06-23T00:18:34.217Z,9.54
2018-06-23T00:19:34.416Z,9.60
2018-06-23T00:20:34.603Z,9.61
2018-06-23T00:21:34.794Z,9.58
2018-06-23T00:22:34.991Z,9.47
2018-06-23T00:23:35.184Z,9.51
2018-06-23T00:24:35.362Z,9.54
2018-06-23T00:25:35.550Z,9.56
2018-06-23T00:26:35.742Z,9.42
2018-06-23T00:27:35.938Z,9.39
2018-06-23T00:28:36.125Z,9.40
2018-06-23T00:29:36.328Z,9.43
2018-06-23T00:30:36.519Z,9.39
2018-06-23T00:31:36.724Z,9.46
2018-06-23T00:32:36.934Z,9.43
2018-06-23T00:33:37.130Z,9.38
2018-06-23T00:34:37.327Z,9.48
2018-06-23T00:35:37.507Z,9.40
2018-06-23T00:36:37.698Z,9.46
2018-06-23T00:37:37.893Z,9.56
2018-06-23T00:38:38.077Z,9.51
2018-06-23T00:41:10.222Z,9.60
2018-06-23T00:42:10.393Z,9.54
2018-06-23T00:43:10.597Z,9.58
2018-06-23T00:44:10.776Z,9.54
2018-06-23T00:45:10.971Z,9.56
2018-06-23T00:46:11.158Z,9.60
2018-06-23T00:47:11.353Z,9.56
2018-06-23T00:48:11.544Z,9.65
2018-06-23T00:49:11.749Z,9.58
2018-06-23T00:50:11.932Z,9.58
2018-06-23T00:51:12.117Z,9.64
2018-06-23T00:52:12.378Z,9.64
2018-06-23T00:53:12.450Z,9.68
2018-06-23T00:54:12.626Z,9.64
2018-06-23T00:55:12.830Z,9.78
2018-06-23T00:56:13.016Z,9.79
2018-06-23T00:57:13.211Z,9.89
2018-06-23T00:58:13.391Z,9.94
2018-06-23T00:59:13.885Z,9.96
2018-06-23T01:00:13.827Z,10.02
2018-06-23T01:01:14.023Z,9.99
2018-06-23T01:02:14.228Z,10.14
2018-06-23T01:03:14.423Z,10.17
2018-06-23T01:04:14.634Z,10.12
2018-06-23T01:05:14.841Z,10.11
2018-06-23T01:06:15.032Z,10.15
2018-06-23T01:07:15.230Z,10.20
2018-06-23T01:08:15.420Z,10.29
2018-06-23T01:09:15.611Z,10.18
2018-06-23T01:10:15.811Z,10.29
2018-06-23T01:11:16.022Z,10.32
2018-06-23T01:12:16.227Z,10.30
2018-06-23T01:13:16.435Z,10.29
2018-06-23T01:14:16.619Z,10.36
2018-06-23T01:15:16.829Z,10.47
2018-06-23T01:16:17.034Z,10.40
2018-06-23T01:17:17.249Z,10.40
2018-06-23T01:18:17.423Z,10.48
2018-06-23T01:19:17.623Z,10.45
2018-06-23T01:20:17.810Z,10.51
2018-06-23T01:21:17.995Z,10.47
2018-06-23T01:22:18.191Z,10.41
2018-06-23T01:23:18.375Z,10.40
2018-06-23T01:24:18.586Z,10.34
2018-06-23T01:25:18.796Z,10.15
2018-06-23T01:26:18.999Z,10.17
2018-06-23T01:27:19.188Z,10.27
2018-06-23T01:28:19.389Z,10.18
2018-06-23T01:29:19.591Z,10.15
2018-06-23T01:30:19.792Z,10.29
2018-06-23T01:31:20.005Z,10.22
2018-06-23T01:32:20.214Z,10.20
2018-06-23T01:33:20.418Z,10.29
2018-06-23T01:34:20.605Z,10.22
2018-06-23T01:35:20.795Z,10.20
2018-06-23T01:36:20.980Z,10.23
2018-06-23T01:37:21.181Z,10.09
2018-06-23T01:38:21.366Z,10.07
2018-06-23T01:39:21.560Z,9.97
2018-06-23T01:40:21.765Z,9.84
2018-06-23T01:41:21.946Z,9.87
2018-06-23T01:42:22.156Z,9.83
2018-06-23T01:43:22.362Z,9.87
2018-06-23T01:44:22.563Z,9.83
2018-06-23T01:46:54.704Z,9.83
2018-06-23T01:47:54.871Z,9.86
2018-06-23T01:48:55.071Z,9.87
2018-06-23T01:49:55.276Z,9.83
2018-06-23T01:50:55.500Z,9.79
2018-06-23T01:51:55.692Z,9.79
2018-06-23T01:52:55.871Z,9.79
2018-06-23T01:53:56.064Z,9.79
2018-06-23T01:54:56.264Z,9.71
2018-06-23T01:55:56.464Z,9.58
2018-06-23T01:56:56.665Z,9.66
2018-06-23T01:57:56.841Z,9.65
2018-06-23T01:58:57.033Z,9.58
2018-06-23T01:59:57.234Z,9.60
2018-06-23T02:00:57.434Z,9.60
2018-06-23T02:01:57.620Z,9.56
2018-06-23T02:02:57.826Z,9.64
2018-06-23T02:03:58.028Z,9.69
2018-06-23T02:04:58.236Z,9.69
2018-06-23T02:05:58.447Z,9.71
2018-06-23T02:06:58.644Z,9.68
2018-06-23T02:07:58.853Z,9.64
2018-06-23T02:08:59.044Z,9.69
2018-06-23T02:09:59.248Z,9.69
2018-06-23T02:10:59.429Z,9.61
2018-06-23T02:11:59.614Z,9.71
2018-06-23T02:12:59.819Z,9.74
2018-06-23T02:14:00.007Z,9.69
2018-06-23T02:15:00.214Z,9.79
2018-06-23T02:16:00.399Z,9.83
2018-06-23T02:17:00.605Z,9.86
2018-06-23T02:18:00.799Z,9.81
2018-06-23T02:19:00.985Z,9.81
2018-06-23T02:20:01.165Z,9.78
2018-06-23T02:21:01.382Z,9.66
2018-06-23T02:22:01.594Z,9.56
2018-06-23T02:23:01.783Z,9.64
2018-06-23T02:24:01.986Z,9.56
2018-06-23T02:25:02.179Z,9.50
2018-06-23T02:26:02.366Z,9.43
2018-06-23T02:27:02.577Z,9.42
2018-06-23T02:28:02.785Z,9.38
2018-06-23T02:29:02.971Z,9.40
2018-06-23T02:30:03.159Z,9.36
2018-06-23T02:31:03.360Z,9.40
2018-06-23T02:33:35.574Z,9.56
2018-06-23T02:34:35.744Z,9.51
2018-06-23T02:37:07.831Z,9.47
2018-06-23T02:38:08.010Z,9.51
2018-06-23T02:39:08.197Z,9.42
2018-06-23T02:40:08.410Z,9.32
2018-06-23T02:41:08.605Z,9.33
2018-06-23T02:42:08.783Z,9.31
2018-06-23T02:43:08.966Z,9.26
2018-06-23T02:44:09.155Z,9.20
2018-06-23T02:45:09.344Z,9.23
2018-06-23T02:46:09.540Z,9.26
2018-06-23T02:47:09.729Z,9.32
2018-06-23T02:49:42.099Z,9.32
2018-06-23T02:50:42.017Z,9.43
2018-06-23T02:51:42.218Z,9.47
2018-06-23T02:52:42.406Z,9.42
2018-06-23T02:53:42.592Z,9.47
2018-06-23T02:54:42.785Z,9.51
2018-06-23T02:55:42.972Z,9.43
2018-06-23T02:56:43.179Z,9.42
2018-06-23T02:57:43.396Z,9.48
2018-06-23T02:58:43.588Z,9.61
2018-06-23T02:59:43.793Z,9.53
2018-06-23T03:00:44.000Z,9.65
2018-06-23T03:01:44.189Z,9.64
2018-06-23T03:02:44.376Z,9.65
2018-06-23T03:03:44.565Z,9.65
2018-06-23T03:04:44.762Z,9.64
2018-06-23T03:05:44.942Z,9.65
2018-06-23T03:06:45.116Z,9.75
2018-06-23T03:07:45.319Z,9.66
2018-06-23T03:08:45.523Z,9.74
2018-06-23T03:09:45.728Z,9.68
2018-06-23T03:10:45.938Z,9.74
2018-06-23T03:11:46.149Z,9.65
2018-06-23T03:12:46.343Z,9.72
2018-06-23T03:13:46.547Z,9.71
2018-06-23T03:14:46.736Z,9.76
2018-06-23T03:15:46.961Z,9.74
2018-06-23T03:16:47.155Z,9.75
2018-06-23T03:17:47.359Z,9.76
2018-06-23T03:18:47.521Z,9.86
2018-06-23T03:19:47.720Z,9.87
2018-06-23T03:20:47.928Z,9.86
2018-06-23T03:21:48.138Z,9.93
2018-06-23T03:22:48.341Z,10.01
2018-06-23T03:23:48.535Z,9.97
2018-06-23T03:24:48.740Z,10.08
2018-06-23T03:25:48.932Z,10.07
2018-06-23T03:26:49.134Z,10.09
2018-06-23T03:27:49.326Z,10.08
2018-06-23T03:28:49.514Z,10.15
2018-06-23T03:29:49.703Z,10.22
2018-06-23T03:30:49.886Z,10.05
2018-06-23T03:31:50.080Z,10.09
2018-06-23T03:32:50.259Z,10.09
2018-06-23T03:33:50.451Z,10.11
2018-06-23T03:34:50.646Z,10.23
2018-06-23T03:37:22.748Z,10.23
2018-06-23T03:38:22.916Z,10.20
2018-06-23T03:39:23.117Z,10.15
2018-06-23T03:40:23.327Z,10.22
2018-06-23T03:41:23.507Z,10.25
2018-06-23T03:42:23.695Z,10.33
2018-06-23T03:43:23.883Z,10.25
2018-06-23T03:44:24.067Z,10.27
2018-06-23T03:45:24.285Z,10.34
2018-06-23T03:46:24.476Z,10.38
2018-06-23T03:47:24.682Z,10.42
2018-06-23T03:48:24.880Z,10.45
2018-06-23T03:49:25.056Z,10.38
2018-06-23T03:50:25.265Z,10.41
2018-06-23T03:51:25.442Z,10.40
2018-06-23T03:52:25.702Z,10.38
2018-06-23T03:53:25.886Z,10.40
2018-06-23T03:54:26.071Z,10.41
2018-06-23T03:55:26.277Z,10.55
2018-06-23T03:56:26.469Z,10.55
2018-06-23T03:57:26.661Z,10.56
2018-06-23T03:58:26.845Z,10.55
2018-06-23T03:59:27.076Z,10.63
2018-06-23T04:00:27.254Z,10.53
2018-06-23T04:01:27.473Z,10.64
2018-06-23T04:02:27.646Z,10.74
2018-06-23T04:03:27.826Z,10.76
2018-06-23T04:04:28.028Z,10.82
2018-06-23T04:05:28.228Z,10.88
2018-06-23T04:06:28.503Z,10.85
2018-06-23T04:07:28.565Z,10.70
2018-06-23T04:08:28.765Z,10.85
2018-06-23T04:09:28.967Z,10.79
2018-06-23T04:10:29.148Z,10.84
2018-06-23T04:11:29.384Z,10.76
2018-06-23T04:12:29.533Z,10.85
2018-06-23T04:13:29.815Z,10.79
2018-06-23T04:14:29.900Z,10.79
2018-06-23T04:15:30.086Z,10.74
2018-06-23T04:16:30.285Z,10.81
2018-06-23T04:17:30.484Z,10.84
2018-06-23T04:18:30.669Z,10.78
2018-06-23T04:19:30.861Z,10.78
2018-06-23T04:20:31.063Z,10.78
2018-06-23T04:23:03.442Z,10.89
2018-06-23T04:24:03.488Z,10.85
2018-06-23T04:25:03.670Z,10.88
2018-06-23T04:26:03.856Z,10.91
2018-06-23T04:27:04.149Z,11.03
2018-06-23T04:28:04.235Z,11.11
2018-06-23T04:29:04.442Z,11.04
2018-06-23T04:30:04.642Z,11.10
2018-06-23T04:31:04.824Z,11.14
2018-06-23T04:32:05.008Z,11.06
2018-06-23T04:33:05.210Z,10.89
2018-06-23T04:34:05.395Z,11.04
2018-06-23T04:35:05.614Z,11.03
2018-06-23T04:36:05.823Z,10.97
2018-06-23T04:37:05.998Z,10.99
2018-06-23T04:39:38.180Z,11.09
2018-06-23T04:40:38.349Z,11.21
2018-06-23T04:41:38.542Z,11.22
2018-06-23T04:42:38.749Z,11.28
2018-06-23T04:43:38.948Z,11.29
2018-06-23T04:44:39.142Z,11.43
2018-06-23T04:45:39.330Z,11.36
2018-06-23T04:46:39.543Z,11.32
2018-06-23T04:47:39.738Z,11.37
2018-06-23T04:48:39.940Z,11.46
2018-06-23T04:49:40.116Z,11.58
2018-06-23T04:50:40.308Z,11.54
2018-06-23T04:51:40.491Z,11.60
2018-06-23T04:52:40.685Z,11.54
2018-06-23T04:53:40.893Z,11.54
2018-06-23T04:54:41.074Z,11.49
2018-06-23T04:57:13.386Z,11.62
2018-06-23T04:58:13.557Z,11.65
2018-06-23T04:59:13.749Z,11.69
2018-06-23T05:00:13.938Z,11.55
2018-06-23T05:02:46.110Z,11.64
2018-06-23T05:03:46.267Z,11.65
2018-06-23T05:04:46.468Z,11.82
2018-06-23T05:05:46.660Z,11.82
2018-06-23T05:06:46.865Z,11.94
2018-06-23T05:07:47.063Z,11.99
2018-06-23T05:08:47.274Z,11.99
2018-06-23T05:09:47.452Z,12.12
2018-06-23T05:10:47.791Z,12.23
2018-06-23T05:11:47.872Z,12.29
2018-06-23T05:12:48.066Z,12.20
2018-06-23T05:13:48.281Z,12.23
2018-06-23T05:14:48.465Z,12.23
2018-06-23T05:15:48.664Z,12.13
2018-06-23T05:16:48.855Z,12.09
2018-06-23T05:17:49.045Z,12.07
2018-06-23T05:18:49.240Z,12.10
2018-06-23T05:19:49.449Z,12.20
2018-06-23T05:20:49.643Z,12.16
2018-06-23T05:21:49.826Z,12.14
2018-06-23T05:22:50.018Z,12.34
2018-06-23T05:23:50.214Z,12.38
2018-06-23T05:24:50.434Z,12.34
2018-06-23T05:25:50.634Z,12.38
2018-06-23T05:26:50.838Z,12.21
2018-06-23T05:27:51.021Z,12.23
2018-06-23T05:28:51.205Z,12.05
2018-06-23T05:29:51.389Z,11.95
2018-06-23T05:30:51.594Z,12.13
2018-06-23T05:31:51.896Z,12.39
2018-06-23T05:32:52.034Z,12.41
2018-06-23T05:35:24.176Z,12.56
2018-06-23T05:36:24.344Z,12.57
2018-06-23T05:37:24.564Z,12.71
2018-06-23T05:38:24.758Z,12.86
2018-06-23T05:39:24.942Z,12.96
2018-06-23T05:40:25.129Z,13.10
2018-06-23T05:41:25.325Z,13.30
2018-06-23T05:42:25.512Z,13.52
2018-06-23T05:43:25.694Z,13.66
2018-06-23T05:45:58.079Z,14.14
2018-06-23T05:46:58.002Z,14.04
2018-06-23T05:47:58.193Z,13.84
2018-06-23T05:48:58.401Z,13.91
2018-06-23T05:49:58.602Z,13.70
2018-06-23T05:50:58.805Z,13.71
2018-06-23T05:51:59.005Z,13.92
2018-06-23T05:52:59.223Z,13.89
2018-06-23T05:53:59.405Z,13.92
2018-06-23T05:54:59.606Z,14.06
2018-06-23T05:55:59.805Z,14.22
2018-06-23T05:56:59.994Z,14.40
2018-06-23T05:58:00.191Z,14.47
2018-06-23T05:59:00.370Z,14.55
2018-06-23T06:00:00.570Z,14.77
2018-06-23T06:01:00.765Z,14.83
2018-06-23T06:02:00.966Z,15.21
2018-06-23T06:03:01.248Z,16.04
2018-06-23T06:04:01.319Z,16.35
2018-06-23T06:05:01.512Z,16.91
2018-06-23T06:06:01.715Z,17.49
2018-06-23T06:08:33.545Z,17.74
2018-06-23T06:09:33.727Z,17.64
2018-06-23T06:10:33.970Z,17.52
2018-06-23T06:11:34.177Z,17.16
2018-06-23T06:12:34.367Z,17.04
2018-06-23T06:13:34.576Z,16.86
2018-06-23T06:14:34.790Z,16.30
2018-06-23T06:15:34.976Z,15.75
2018-06-23T06:16:35.186Z,15.51
2018-06-23T06:17:35.386Z,15.44
2018-06-23T06:18:35.585Z,14.86
2018-06-23T06:19:35.788Z,14.83
2018-06-23T06:20:35.996Z,14.58
2018-06-23T06:21:36.194Z,14.62
2018-06-23T06:22:36.399Z,14.40
2018-06-23T06:23:36.612Z,14.45
2018-06-23T06:24:36.800Z,14.20
2018-06-23T06:25:36.995Z,14.29
2018-06-23T06:26:37.219Z,14.18
2018-06-23T06:29:09.360Z,14.14
2018-06-23T06:30:09.531Z,14.04
2018-06-23T06:31:09.718Z,13.88
2018-06-23T06:32:09.930Z,13.85
2018-06-23T06:33:10.120Z,13.87
2018-06-23T06:34:10.309Z,13.73
2018-06-23T06:35:10.493Z,13.87
2018-06-23T06:36:10.674Z,14.06
2018-06-23T06:37:10.859Z,14.32
2018-06-23T06:38:11.068Z,14.33
2018-06-23T06:39:11.266Z,14.35
2018-06-23T06:40:11.480Z,14.37
2018-06-23T06:41:11.673Z,14.42
2018-06-23T06:42:11.878Z,14.50
2018-06-23T06:43:12.054Z,14.61
2018-06-23T06:44:12.260Z,14.47
2018-06-23T06:45:12.473Z,14.43
2018-06-23T06:46:12.673Z,14.43
2018-06-23T06:47:12.877Z,14.39
2018-06-23T06:48:13.083Z,14.33
2018-06-23T06:49:13.293Z,14.09
2018-06-23T06:50:13.494Z,14.02
2018-06-23T06:51:13.685Z,14.09
2018-06-23T06:52:13.889Z,14.36
2018-06-23T06:53:14.077Z,14.62
2018-06-23T06:54:14.266Z,14.69
2018-06-23T06:55:14.473Z,14.84
2018-06-23T06:56:14.685Z,14.54
2018-06-23T06:57:14.994Z,14.60
2018-06-23T06:58:15.105Z,14.70
2018-06-23T06:59:15.297Z,14.86
2018-06-23T07:00:15.489Z,14.80
2018-06-23T07:02:47.308Z,14.46
2018-06-23T07:03:47.490Z,14.35
2018-06-23T07:04:47.766Z,14.61
2018-06-23T07:05:47.848Z,14.57
2018-06-23T07:06:48.057Z,14.57
2018-06-23T07:07:48.268Z,14.62
2018-06-23T07:08:48.493Z,14.70
2018-06-23T07:09:48.629Z,14.83
2018-06-23T07:10:48.819Z,15.10
2018-06-23T07:11:49.016Z,15.14
2018-06-23T07:12:49.218Z,15.10
2018-06-23T07:13:49.397Z,15.28
2018-06-23T07:14:49.585Z,15.38
2018-06-23T07:15:49.791Z,15.35
2018-06-23T07:16:49.975Z,15.28
2018-06-23T07:17:50.166Z,15.31
2018-06-23T07:18:50.364Z,15.41
2018-06-23T07:19:50.599Z,15.46
2018-06-23T07:20:50.772Z,15.38
2018-06-23T07:21:50.979Z,15.54
2018-06-23T07:22:51.168Z,15.46
2018-06-23T07:23:51.500Z,15.23
2018-06-23T07:24:51.554Z,15.14
2018-06-23T07:25:51.767Z,15.07
2018-06-23T07:26:52.020Z,15.02
2018-06-23T07:27:52.178Z,14.95
2018-06-23T07:28:52.374Z,14.61
2018-06-23T07:29:52.576Z,14.52
2018-06-23T07:30:52.876Z,14.50
2018-06-23T07:31:53.002Z,14.42
2018-06-23T07:32:53.185Z,14.52
2018-06-23T07:33:53.376Z,14.51
2018-06-23T07:34:53.668Z,14.58
2018-06-23T07:35:53.788Z,14.37
2018-06-23T07:36:53.966Z,14.12
2018-06-23T07:37:54.169Z,14.32
2018-06-23T07:38:54.370Z,14.20
2018-06-23T07:39:54.578Z,14.27
2018-06-23T07:40:54.765Z,14.32
2018-06-23T07:41:54.956Z,14.18
2018-06-23T07:42:55.144Z,14.06
2018-06-23T07:43:55.364Z,14.04
2018-06-23T07:44:55.574Z,14.09
2018-06-23T07:45:55.773Z,14.09
2018-06-23T07:46:55.992Z,14.15
2018-06-23T07:47:56.281Z,14.00
2018-06-23T07:48:56.346Z,14.02
2018-06-23T07:49:56.554Z,14.00
2018-06-23T07:50:56.755Z,14.14
2018-06-23T07:51:56.954Z,14.09
2018-06-23T07:52:57.154Z,14.14
2018-06-23T07:53:57.355Z,14.06
2018-06-23T07:56:29.193Z,14.04
2018-06-23T07:57:29.367Z,14.07
2018-06-23T07:58:29.555Z,14.15
2018-06-23T07:59:29.751Z,14.33
2018-06-23T08:00:29.956Z,14.28
2018-06-23T08:01:30.160Z,14.55
2018-06-23T08:02:30.378Z,14.45
2018-06-23T08:03:30.579Z,14.43
2018-06-23T08:04:30.791Z,14.39
2018-06-23T08:05:30.974Z,14.33
2018-06-23T08:06:31.183Z,14.29
2018-06-23T08:07:31.387Z,14.33
2018-06-23T08:08:31.588Z,14.28
2018-06-23T08:09:31.776Z,14.32
2018-06-23T08:10:31.983Z,14.46
2018-06-23T08:11:32.178Z,14.55
2018-06-23T08:12:32.373Z,14.52
2018-06-23T08:13:32.593Z,14.58
2018-06-23T08:14:32.781Z,14.52
2018-06-23T08:15:32.984Z,14.51
2018-06-23T08:16:33.207Z,14.28
2018-06-23T08:17:33.416Z,14.32
2018-06-23T08:18:33.645Z,14.21
2018-06-23T08:19:33.808Z,14.42
2018-06-23T08:20:34.015Z,14.52
2018-06-23T08:21:34.227Z,14.58
2018-06-23T08:22:34.426Z,14.54
2018-06-23T08:23:34.625Z,14.64
2018-06-23T08:24:34.833Z,14.64
2018-06-23T08:25:35.043Z,14.80
2018-06-23T08:26:35.352Z,14.88
2018-06-23T08:27:35.428Z,14.80
2018-06-23T08:28:35.622Z,14.69
2018-06-23T08:29:35.821Z,14.86
2018-06-23T08:30:36.032Z,14.89
2018-06-23T08:31:36.239Z,14.86
2018-06-23T08:32:36.437Z,14.86
2018-06-23T08:33:36.635Z,15.10
2018-06-23T08:34:36.842Z,15.20
2018-06-23T08:35:37.050Z,15.25
2018-06-23T08:36:37.244Z,15.38
2018-06-23T08:37:37.454Z,15.39
2018-06-23T08:38:37.646Z,15.17
2018-06-23T08:39:37.847Z,15.23
2018-06-23T08:40:38.056Z,15.25
2018-06-23T08:43:10.192Z,15.34
2018-06-23T08:44:10.359Z,15.46
2018-06-23T08:45:10.554Z,15.71
2018-06-23T08:46:10.739Z,15.64
2018-06-23T08:47:10.926Z,15.44
2018-06-23T08:48:11.112Z,15.23
2018-06-23T08:49:11.373Z,15.17
2018-06-23T08:50:11.502Z,15.19
2018-06-23T08:51:11.718Z,15.23
2018-06-23T08:52:11.900Z,15.34
2018-06-23T08:53:12.102Z,15.20
2018-06-23T08:54:12.315Z,14.99
2018-06-23T08:55:12.524Z,14.84
2018-06-23T08:56:12.734Z,15.02
2018-06-23T08:57:12.943Z,14.94
2018-06-23T08:58:13.163Z,14.98
2018-06-23T08:59:13.377Z,14.95
2018-06-23T09:00:13.585Z,15.01
2018-06-23T09:01:13.796Z,14.94
2018-06-23T09:02:14.005Z,15.01
2018-06-23T09:03:14.205Z,14.98
2018-06-23T09:04:14.417Z,14.88
2018-06-23T09:05:14.633Z,14.98
2018-06-23T09:06:14.817Z,14.99
2018-06-23T09:07:15.008Z,14.94
2018-06-23T09:08:15.192Z,15.14
2018-06-23T09:09:15.396Z,15.21
2018-06-23T09:10:15.581Z,15.29
2018-06-23T09:11:15.782Z,15.38
2018-06-23T09:12:15.963Z,15.35
2018-06-23T09:13:16.155Z,15.32
2018-06-23T09:14:16.366Z,15.16
2018-06-23T09:15:16.576Z,15.23
2018-06-23T09:16:16.788Z,15.14
2018-06-23T09:17:16.986Z,15.21
2018-06-23T09:18:17.178Z,15.34
2018-06-23T09:19:17.365Z,15.13
2018-06-23T09:20:17.556Z,15.02
2018-06-23T09:21:17.768Z,15.14
2018-06-23T09:22:17.956Z,15.29
2018-06-23T09:23:18.168Z,15.28
2018-06-23T09:24:18.376Z,15.21
2018-06-23T09:25:18.560Z,15.29
2018-06-23T09:26:18.762Z,15.39
2018-06-23T09:27:18.957Z,15.36
2018-06-23T09:28:19.158Z,15.35
2018-06-23T09:29:19.368Z,15.34
2018-06-23T09:30:19.578Z,15.36
2018-06-23T09:31:19.766Z,15.41
2018-06-23T09:32:19.970Z,15.38
2018-06-23T09:33:20.280Z,15.53
2018-06-23T09:34:20.349Z,15.46
2018-06-23T09:35:20.550Z,15.34
2018-06-23T09:36:20.757Z,15.44
2018-06-23T09:37:20.970Z,15.31
2018-06-23T09:38:21.160Z,15.34
2018-06-23T09:39:21.380Z,15.23
2018-06-23T09:40:21.598Z,15.21
2018-06-23T09:41:21.801Z,15.13
2018-06-23T09:42:21.997Z,14.99
2018-06-23T09:43:22.180Z,15.03
2018-06-23T09:44:22.375Z,14.78
2018-06-23T09:45:22.576Z,14.68
2018-06-23T09:46:22.786Z,14.68
2018-06-23T09:47:22.979Z,14.70
2018-06-23T09:48:23.173Z,14.55
2018-06-23T09:49:23.359Z,14.61
2018-06-23T09:50:23.557Z,14.81
2018-06-23T09:51:23.867Z,14.80
2018-06-23T09:52:23.964Z,14.88
2018-06-23T09:53:24.149Z,14.83
2018-06-23T09:54:24.360Z,14.83
2018-06-23T09:55:24.560Z,14.83
2018-06-23T09:56:24.771Z,14.73
2018-06-23T09:57:24.962Z,14.80
2018-06-23T09:58:25.176Z,14.86
2018-06-23T09:59:25.387Z,14.92
2018-06-23T10:00:25.598Z,14.83
2018-06-23T10:01:25.806Z,14.84
2018-06-23T10:02:26.012Z,14.83
2018-06-23T10:03:26.220Z,14.96
2018-06-23T10:04:26.427Z,14.86
2018-06-23T10:05:26.643Z,14.81
2018-06-23T10:06:26.853Z,14.58
2018-06-23T10:07:27.082Z,14.68
2018-06-23T10:08:27.441Z,14.61
2018-06-23T10:09:27.475Z,14.83
2018-06-23T10:10:27.666Z,14.75
2018-06-23T10:11:27.922Z,14.64
2018-06-23T10:12:28.008Z,14.75
2018-06-23T10:13:28.192Z,14.89
2018-06-23T10:14:28.399Z,14.64
2018-06-23T10:15:28.609Z,14.78
2018-06-23T10:16:28.791Z,14.72
2018-06-23T10:17:28.993Z,14.58
2018-06-23T10:18:29.196Z,14.55
2018-06-23T10:19:29.398Z,14.47
2018-06-23T10:20:29.606Z,14.61
2018-06-23T10:21:29.825Z,14.61
2018-06-23T10:22:30.026Z,14.62
2018-06-23T10:23:30.229Z,14.55
2018-06-23T10:24:30.452Z,14.61
2018-06-23T10:25:30.642Z,14.75
2018-06-23T10:26:30.850Z,14.80
2018-06-23T10:27:31.057Z,14.75
2018-06-23T10:28:31.267Z,14.96
2018-06-23T10:29:31.458Z,14.91
2018-06-23T10:30:31.646Z,14.84
2018-06-23T10:31:31.867Z,14.94
2018-06-23T10:32:32.080Z,14.96
2018-06-23T10:33:32.297Z,15.02
2018-06-23T10:34:32.538Z,14.86
2018-06-23T10:35:32.617Z,14.64
2018-06-23T10:36:32.826Z,14.64
2018-06-23T10:37:33.031Z,14.65
2018-06-23T10:38:33.250Z,14.55
2018-06-23T10:39:33.462Z,14.68
2018-06-23T10:40:33.728Z,14.57
2018-06-23T10:41:33.888Z,14.47
2018-06-23T10:42:34.100Z,14.50
2018-06-23T10:43:34.306Z,14.54
2018-06-23T10:44:34.520Z,14.24
2018-06-23T10:45:34.716Z,14.33
2018-06-23T10:46:34.909Z,14.32
2018-06-23T10:47:35.115Z,14.37
2018-06-23T10:48:35.326Z,14.29
2018-06-23T10:49:35.540Z,14.28
2018-06-23T10:50:35.747Z,14.21
2018-06-23T10:51:35.926Z,14.25
2018-06-23T10:52:36.132Z,14.27
2018-06-23T10:53:36.415Z,14.25
2018-06-23T10:54:36.500Z,14.37
2018-06-23T10:55:36.707Z,14.43
2018-06-23T10:56:36.910Z,14.52
2018-06-23T10:57:37.104Z,14.40
2018-06-23T10:58:37.317Z,14.21
2018-06-23T10:59:37.528Z,14.17
2018-06-23T11:00:37.708Z,14.12
2018-06-23T11:01:37.897Z,13.99
2018-06-23T11:02:38.085Z,14.15
2018-06-23T11:03:38.292Z,14.24
2018-06-23T11:04:38.541Z,14.21
2018-06-23T11:05:38.705Z,14.45
2018-06-23T11:06:38.891Z,14.24
2018-06-23T11:07:39.110Z,14.18
2018-06-23T11:08:39.299Z,14.25
2018-06-23T11:09:39.486Z,14.17
2018-06-23T11:10:39.667Z,14.09
2018-06-23T11:11:39.897Z,14.24
2018-06-23T11:12:40.099Z,14.07
2018-06-23T11:13:40.313Z,14.07
2018-06-23T11:14:40.505Z,14.09
2018-06-23T11:15:40.702Z,14.22
2018-06-23T11:16:40.913Z,14.58
2018-06-23T11:17:41.115Z,14.62
2018-06-23T11:18:41.322Z,14.58
2018-06-23T11:19:41.524Z,14.88
2018-06-23T11:20:41.717Z,14.95
2018-06-23T11:21:41.915Z,15.17
2018-06-23T11:22:42.117Z,15.28
2018-06-23T11:23:42.334Z,15.54
2018-06-23T11:24:42.541Z,15.92
2018-06-23T11:25:42.742Z,16.04
2018-06-23T11:26:42.935Z,16.39
2018-06-23T11:27:43.117Z,16.21
2018-06-23T11:28:43.311Z,16.31
2018-06-23T11:29:43.517Z,16.15
2018-06-23T11:30:43.705Z,16.05
2018-06-23T11:31:43.890Z,15.94
2018-06-23T11:32:44.089Z,15.97
2018-06-23T11:33:44.287Z,16.01
2018-06-23T11:34:44.472Z,16.23
2018-06-23T11:35:44.660Z,16.17
2018-06-23T11:36:44.846Z,16.20
2018-06-23T11:37:45.065Z,16.33
2018-06-23T11:38:45.271Z,16.28
2018-06-23T11:39:45.470Z,16.24
2018-06-23T11:40:45.657Z,16.27
2018-06-23T11:41:45.857Z,16.41
2018-06-23T11:42:46.059Z,16.31
2018-06-23T11:43:46.255Z,16.57
2018-06-23T11:44:46.470Z,16.30
2018-06-23T11:45:46.659Z,16.21
2018-06-23T11:46:46.865Z,16.30
2018-06-23T11:47:47.048Z,16.50
2018-06-23T11:48:47.234Z,16.24
2018-06-23T11:49:47.445Z,16.31
2018-06-23T11:50:47.668Z,16.30
2018-06-23T11:51:47.879Z,16.60
2018-06-23T11:54:20.286Z,16.66
2018-06-23T11:55:20.206Z,16.45
2018-06-23T11:56:20.403Z,16.24
2018-06-23T11:57:20.616Z,16.12
2018-06-23T11:58:20.799Z,16.21
2018-06-23T11:59:20.987Z,16.46
2018-06-23T12:00:21.197Z,16.49
2018-06-23T12:01:21.403Z,17.00
2018-06-23T12:02:21.618Z,16.89
2018-06-23T12:03:21.828Z,17.30
2018-06-23T12:04:22.033Z,17.46
2018-06-23T12:05:22.253Z,17.52
2018-06-23T12:06:22.442Z,17.71
2018-06-23T12:07:22.664Z,18.11
2018-06-23T12:08:22.856Z,18.08
2018-06-23T12:09:23.069Z,18.27
2018-06-23T12:11:55.205Z,18.23
2018-06-23T12:12:55.377Z,18.60
2018-06-23T12:13:55.584Z,18.72
2018-06-23T12:14:55.795Z,18.78
2018-06-23T12:17:27.919Z,18.44
2018-06-23T12:18:28.096Z,18.58
2018-06-23T12:19:28.313Z,18.91
2018-06-23T12:20:28.519Z,18.76
2018-06-23T12:21:28.710Z,18.98
2018-06-23T12:22:28.929Z,18.88
2018-06-23T12:23:29.118Z,18.70
2018-06-23T12:24:29.319Z,18.72
2018-06-23T12:25:29.554Z,18.87
2018-06-23T12:26:29.704Z,18.92
2018-06-23T12:27:29.909Z,19.23
2018-06-23T12:28:30.111Z,18.91
2018-06-23T12:29:30.328Z,18.67
2018-06-23T12:30:30.628Z,17.96
2018-06-23T12:31:30.769Z,17.58
2018-06-23T12:32:30.959Z,17.34
2018-06-23T12:33:31.153Z,17.31
2018-06-23T12:34:31.496Z,17.06
2018-06-23T12:35:31.581Z,17.31
2018-06-23T12:36:31.780Z,17.63
2018-06-23T12:37:31.962Z,17.90
2018-06-23T12:38:32.168Z,17.99
2018-06-23T12:39:32.388Z,18.26
2018-06-23T12:40:32.584Z,18.39
2018-06-23T12:41:32.813Z,18.36
2018-06-23T12:42:33.006Z,18.37
2018-06-23T12:43:33.220Z,18.27
2018-06-23T12:44:33.445Z,18.26
2018-06-23T12:45:33.649Z,18.45
2018-06-23T12:46:33.964Z,18.08
2018-06-23T12:47:34.061Z,17.86
2018-06-23T12:48:34.389Z,18.10
2018-06-23T12:49:34.456Z,18.18
2018-06-23T12:50:34.665Z,18.27
2018-06-23T12:51:34.869Z,18.48
2018-06-23T12:52:35.081Z,18.51
2018-06-23T12:53:35.295Z,18.37
2018-06-23T12:54:35.496Z,18.37
2018-06-23T12:55:35.700Z,18.50
2018-06-23T12:56:35.922Z,18.60
2018-06-23T12:57:36.118Z,19.04
2018-06-23T12:58:36.340Z,19.14
2018-06-23T12:59:36.549Z,19.07
2018-06-23T13:00:36.746Z,18.98
2018-06-23T13:01:36.945Z,18.94
2018-06-23T13:02:37.156Z,18.78
2018-06-23T13:03:37.346Z,18.66
2018-06-23T13:04:37.554Z,18.45
2018-06-23T13:05:37.770Z,18.48
2018-06-23T13:06:38.000Z,18.55
2018-06-23T13:07:38.201Z,18.14
2018-06-23T13:08:38.414Z,18.08
2018-06-23T13:09:38.615Z,18.14
2018-06-23T13:10:38.820Z,17.93
2018-06-23T13:11:39.030Z,17.55
2018-06-23T13:12:39.230Z,17.49
2018-06-23T13:13:39.448Z,17.58
2018-06-23T13:14:39.649Z,17.36
2018-06-23T13:15:39.853Z,17.22
2018-06-23T13:16:40.055Z,17.19
2018-06-23T13:17:40.255Z,17.26
2018-06-23T13:18:40.475Z,17.33
2018-06-23T13:19:40.704Z,17.28
2018-06-23T13:20:40.892Z,17.11
2018-06-23T13:21:41.105Z,17.04
2018-06-23T13:22:41.290Z,17.18
2018-06-23T13:23:41.503Z,17.26
2018-06-23T13:24:41.709Z,17.40
2018-06-23T13:25:41.909Z,17.44
2018-06-23T13:26:42.139Z,17.31
2018-06-23T13:27:42.341Z,17.63
2018-06-23T13:28:42.523Z,17.55
2018-06-23T13:29:42.723Z,17.56
2018-06-23T13:30:42.918Z,17.62
2018-06-23T13:31:43.141Z,17.63
2018-06-23T13:32:43.330Z,17.63